Time;durP1;ratioP1;P1;durP2;ratioP2;P2;SDS_P1;SDS_P2;PMS_P1;PMS_P2;Temp;Humidity;BMP_temperature;BMP_pressure;BME280_temperature;BME280_humidity;BME280_pressure;Samples;Min_cycle;Max_cycle;Signal;HPM_P1;HPM_P2
2022/02/01 00:01:33;;;;;;;8.00;2.45;;;5.30;99.90;;;;;;5029631;28;20212;-80
2022/02/01 00:04:03;;;;;;;8.75;3.20;;;5.30;99.90;;;;;;5025553;28;20234;-82
2022/02/01 00:06:41;;;;;;;9.43;4.00;;;5.40;99.90;;;;;;5021422;28;20185;-84
2022/02/01 00:09:17;;;;;;;9.60;2.85;;;5.40;99.90;;;;;;5020791;28;20225;-79
2022/02/01 00:12:10;;;;;;;7.18;2.45;;;5.40;99.90;;;;;;5034315;28;20189;-81
2022/02/01 00:14:59;;;;;;;15.93;4.13;;;5.40;99.90;;;;;;5037524;28;20225;-80
2022/02/01 00:17:47;;;;;;;12.80;2.95;;;5.40;99.90;;;;;;5039572;28;20213;-82
2022/02/01 00:20:25;;;;;;;10.25;3.53;;;5.40;99.90;;;;;;5035494;28;20193;-82
2022/02/01 00:34:09;;;;;;;14.45;3.28;;;5.40;99.90;;;;;;5030764;28;20330;-82
2022/02/01 00:36:40;;;;;;;11.70;4.70;;;5.40;99.90;;;;;;5034216;28;20232;-80
2022/02/01 00:39:10;;;;;;;15.55;4.10;;;5.40;99.90;;;;;;5035704;28;20213;-82
2022/02/01 00:41:42;;;;;;;15.32;4.03;;;5.40;99.90;;;;;;5041862;28;20211;-80
2022/02/01 00:44:10;;;;;;;19.23;4.80;;;5.40;99.90;;;;;;5032935;28;20231;-83
2022/02/01 00:46:38;;;;;;;17.02;4.30;;;5.40;99.90;;;;;;5027048;28;20197;-82
2022/02/01 00:49:05;;;;;;;19.42;5.50;;;5.30;99.90;;;;;;5025529;28;20229;-82
2022/02/01 00:51:32;;;;;;;8.30;3.97;;;5.30;99.90;;;;;;5025496;28;20674;-82
2022/02/01 00:53:59;;;;;;;19.98;3.13;;;5.20;99.90;;;;;;5026982;28;20260;-82
2022/02/01 00:56:26;;;;;;;11.55;3.75;;;5.10;99.90;;;;;;5035574;28;20287;-85
2022/02/01 00:58:53;;;;;;;16.50;3.97;;;5.00;99.90;;;;;;5020198;28;20224;-82
2022/02/01 01:01:20;;;;;;;11.80;3.50;;;4.90;99.90;;;;;;5026126;28;20224;-83
2022/02/01 01:03:48;;;;;;;14.52;3.63;;;4.90;99.90;;;;;;5027533;28;20221;-81
2022/02/01 01:06:16;;;;;;;23.88;5.78;;;4.80;99.90;;;;;;5021255;28;20216;-82
2022/02/01 01:08:43;;;;;;;21.88;4.03;;;4.80;99.90;;;;;;5032729;28;20208;-81
2022/02/01 01:11:11;;;;;;;13.23;5.55;;;4.90;99.90;;;;;;5029785;28;20270;-84
2022/02/01 01:14:04;;;;;;;17.33;3.95;;;4.70;99.90;;;;;;5028607;28;20283;-82
2022/02/01 01:16:53;;;;;;;17.60;4.43;;;4.70;99.90;;;;;;5033278;28;20216;-83
2022/02/01 01:43:30;;;;;;;16.40;5.13;;;4.60;99.90;;;;;;5032194;28;20223;-82
2022/02/01 01:44:33;;;;;;;15.95;3.20;;;4.60;99.90;;;;;;5027419;28;20288;-83
2022/02/01 01:55:18;;;;;;;22.05;4.03;;;4.60;99.90;;;;;;5021634;28;20666;-83
2022/02/01 01:57:45;;;;;;;13.80;2.80;;;4.60;99.90;;;;;;5030823;28;20225;-81
2022/02/01 02:00:26;;;;;;;17.33;3.05;;;4.60;99.90;;;;;;5030205;28;20669;-83
2022/02/01 02:02:53;;;;;;;12.13;3.45;;;4.60;99.90;;;;;;5030263;28;20292;-83
2022/02/01 02:05:20;;;;;;;17.27;3.80;;;4.60;99.90;;;;;;5025049;28;20207;-83
2022/02/01 02:07:49;;;;;;;11.50;4.00;;;4.70;99.90;;;;;;5024512;28;20209;-82
2022/02/01 02:10:16;;;;;;;18.23;3.17;;;4.50;99.90;;;;;;5023821;28;20225;-83
2022/02/01 02:12:56;;;;;;;13.23;4.18;;;4.50;99.90;;;;;;5037708;28;20220;-83
2022/02/01 02:15:33;;;;;;;21.52;4.03;;;4.50;99.90;;;;;;5030354;28;20266;-82
2022/02/01 02:18:01;;;;;;;9.20;3.13;;;4.50;99.90;;;;;;5024665;28;20636;-82
2022/02/01 02:20:39;;;;;;;15.93;4.85;;;4.50;99.90;;;;;;5024375;28;20745;-82
2022/02/01 02:23:09;;;;;;;15.70;3.22;;;4.50;99.90;;;;;;5031564;28;20244;-83
2022/02/01 02:25:37;;;;;;;17.45;2.70;;;4.50;99.90;;;;;;5027777;28;20264;-82
2022/02/01 02:28:05;;;;;;;16.73;3.38;;;4.50;99.90;;;;;;5026344;28;20288;-82
2022/02/01 02:30:32;;;;;;;8.18;2.67;;;4.50;99.90;;;;;;5033548;28;20208;-82
2022/02/01 02:33:02;;;;;;;12.52;2.67;;;4.60;99.90;;;;;;5026254;28;20217;-83
2022/02/01 02:35:33;;;;;;;21.00;5.10;;;4.60;99.90;;;;;;5038480;28;20220;-82
2022/02/01 02:38:04;;;;;;;20.00;4.20;;;4.50;99.90;;;;;;5028533;28;20255;-82
2022/02/01 02:40:45;;;;;;;11.10;4.03;;;4.50;99.90;;;;;;5027394;28;20813;-83
2022/02/01 02:45:57;;;;;;;13.95;3.03;;;4.50;99.90;;;;;;5029247;28;20263;-81
2022/02/01 02:48:24;;;;;;;12.45;2.83;;;4.60;99.90;;;;;;5039251;28;20215;-81
2022/02/01 02:50:51;;;;;;;11.80;4.50;;;4.60;99.90;;;;;;5025818;28;20277;-82
2022/02/01 02:53:18;;;;;;;11.23;2.67;;;4.70;99.90;;;;;;5028919;28;20221;-81
2022/02/01 02:55:46;;;;;;;10.57;2.92;;;4.50;99.90;;;;;;5032924;28;20216;-81
2022/02/01 02:58:13;;;;;;;11.43;2.83;;;4.60;99.90;;;;;;5037849;28;20224;-81
2022/02/01 03:00:40;;;;;;;9.73;3.10;;;4.60;99.90;;;;;;5039796;28;20291;-81
2022/02/01 03:03:07;;;;;;;11.52;2.97;;;4.70;99.90;;;;;;5034807;28;20220;-80
2022/02/01 03:05:34;;;;;;;10.65;3.30;;;4.70;99.90;;;;;;5043347;28;20219;-82
2022/02/01 03:08:01;;;;;;;12.57;2.65;;;4.60;99.90;;;;;;5036006;28;20216;-83
2022/02/01 03:10:28;;;;;;;17.38;4.30;;;4.70;99.90;;;;;;5041811;28;20215;-82
2022/02/01 03:13:09;;;;;;;6.82;2.40;;;4.70;99.90;;;;;;5038024;28;20257;-80
2022/02/01 03:15:44;;;;;;;8.95;2.55;;;4.70;99.90;;;;;;5044734;28;20219;-81
2022/02/01 03:20:55;;;;;;;6.78;2.65;;;4.60;99.90;;;;;;5037185;28;20207;-82
2022/02/01 03:23:22;;;;;;;8.27;1.95;;;4.50;99.90;;;;;;5037156;28;20247;-84
2022/02/01 03:25:49;;;;;;;10.18;2.33;;;4.50;99.90;;;;;;5037624;28;20208;-80
2022/02/01 03:28:18;;;;;;;14.68;2.65;;;4.50;99.90;;;;;;5040464;28;20205;-81
2022/02/01 03:30:45;;;;;;;12.52;3.08;;;4.40;99.90;;;;;;5039792;28;20296;-80
2022/02/01 03:33:11;;;;;;;12.57;3.88;;;4.40;99.90;;;;;;5038575;28;20216;-83
2022/02/01 03:35:38;;;;;;;13.85;3.20;;;4.30;99.90;;;;;;5041110;28;20189;-82
2022/02/01 03:38:05;;;;;;;10.45;2.55;;;4.40;99.90;;;;;;5041782;28;20243;-82
2022/02/01 03:40:32;;;;;;;9.85;2.85;;;4.50;99.90;;;;;;5038643;28;20209;-80
2022/02/01 03:42:59;;;;;;;10.63;4.00;;;4.50;99.90;;;;;;5041551;28;20252;-81
2022/02/01 03:45:27;;;;;;;12.35;3.17;;;4.40;99.90;;;;;;5039366;28;20225;-81
2022/02/01 03:47:54;;;;;;;7.53;2.78;;;4.40;99.90;;;;;;5041272;28;20177;-79
2022/02/01 03:50:21;;;;;;;19.73;3.70;;;4.50;99.90;;;;;;5041045;28;20228;-78
2022/02/01 03:52:48;;;;;;;15.10;3.95;;;4.50;99.90;;;;;;5040553;28;20228;-81
2022/02/01 03:55:15;;;;;;;11.68;2.70;;;4.50;99.90;;;;;;5041213;28;20241;-80
2022/02/01 03:57:42;;;;;;;8.55;4.50;;;4.60;99.90;;;;;;5041315;28;20239;-81
2022/02/01 04:00:10;;;;;;;14.88;3.25;;;4.40;99.90;;;;;;5041119;28;20216;-79
2022/02/01 04:02:38;;;;;;;8.63;2.85;;;4.30;99.90;;;;;;5041116;28;20224;-79
2022/02/01 04:05:06;;;;;;;10.05;2.47;;;4.30;99.90;;;;;;5041057;28;20177;-79
2022/02/01 04:07:35;;;;;;;11.55;3.05;;;4.30;99.90;;;;;;5040851;28;20193;-80
2022/02/01 04:10:02;;;;;;;7.75;2.70;;;4.30;99.90;;;;;;5040162;28;20181;-80
2022/02/01 04:12:30;;;;;;;7.55;3.72;;;4.30;99.90;;;;;;5048043;28;20193;-85
2022/02/01 04:14:58;;;;;;;17.63;5.03;;;4.30;99.90;;;;;;5047945;28;20212;-83
2022/02/01 04:17:25;;;;;;;17.33;3.40;;;4.50;99.90;;;;;;5042038;28;20209;-83
2022/02/01 04:19:54;;;;;;;19.25;4.20;;;4.30;99.90;;;;;;5033219;28;20212;-82
2022/02/01 04:22:21;;;;;;;10.77;2.35;;;4.30;99.90;;;;;;5041161;28;20291;-82
2022/02/01 04:24:48;;;;;;;12.85;3.30;;;4.30;99.90;;;;;;5041594;28;20228;-81
2022/02/01 04:27:28;;;;;;;11.27;4.20;;;4.30;99.90;;;;;;5036079;28;20292;-82
2022/02/01 04:30:05;;;;;;;19.05;4.95;;;4.20;99.90;;;;;;5023732;28;20239;-82
2022/02/01 04:32:32;;;;;;;7.88;2.30;;;4.30;99.90;;;;;;5044311;28;20240;-82
2022/02/01 04:35:01;;;;;;;10.90;2.45;;;4.20;99.90;;;;;;5032684;28;20208;-83
2022/02/01 04:37:28;;;;;;;6.28;2.75;;;4.10;99.90;;;;;;5036927;28;22070;-81
2022/02/01 04:39:55;;;;;;;8.98;2.63;;;4.10;99.90;;;;;;5039181;28;20214;-82
2022/02/01 04:42:23;;;;;;;15.63;4.32;;;4.30;99.90;;;;;;5040807;28;20215;-83
2022/02/01 04:44:59;;;;;;;14.48;3.33;;;4.10;99.90;;;;;;5040622;28;20193;-83
2022/02/01 04:47:30;;;;;;;17.83;3.00;;;4.10;99.90;;;;;;5040843;28;20187;-83
2022/02/01 04:49:57;;;;;;;11.60;3.45;;;4.10;99.90;;;;;;5039851;28;20204;-81
2022/02/01 04:52:25;;;;;;;7.78;2.80;;;4.00;99.90;;;;;;5040332;28;20321;-81
2022/02/01 04:54:52;;;;;;;19.65;3.95;;;4.00;99.90;;;;;;5040232;28;20240;-82
2022/02/01 04:57:19;;;;;;;8.23;2.45;;;3.90;99.90;;;;;;5038304;28;20265;-81
2022/02/01 04:59:46;;;;;;;14.55;2.95;;;3.90;99.90;;;;;;5037897;28;20212;-81
2022/02/01 05:02:13;;;;;;;14.00;2.50;;;3.90;99.90;;;;;;5036475;28;20232;-82
2022/02/01 05:04:40;;;;;;;8.05;2.70;;;3.80;99.90;;;;;;5031273;28;20244;-83
2022/02/01 05:07:07;;;;;;;17.65;3.03;;;3.80;99.90;;;;;;5031743;28;20232;-83
2022/02/01 05:09:36;;;;;;;21.98;4.68;;;3.80;99.90;;;;;;5034900;28;20192;-83
2022/02/01 05:12:06;;;;;;;13.32;3.58;;;3.80;99.90;;;;;;5036728;28;20199;-82
2022/02/01 05:14:33;;;;;;;18.75;3.75;;;3.80;99.90;;;;;;5032194;28;20277;-81
2022/02/01 05:17:02;;;;;;;8.20;3.63;;;3.80;99.90;;;;;;5031806;28;20197;-81
2022/02/01 05:19:46;;;;;;;14.60;3.15;;;3.90;99.90;;;;;;5031907;28;20235;-83
2022/02/01 05:22:16;;;;;;;9.82;3.10;;;3.90;99.90;;;;;;5036248;28;20213;-81
2022/02/01 05:24:46;;;;;;;14.82;3.85;;;3.80;99.90;;;;;;5032770;28;20219;-82
2022/02/01 05:27:14;;;;;;;16.85;3.50;;;3.80;99.90;;;;;;5035239;28;20209;-83
2022/02/01 05:29:42;;;;;;;16.50;3.28;;;3.90;99.90;;;;;;5041386;28;20228;-84
2022/02/01 05:32:24;;;;;;;12.77;2.72;;;3.90;99.90;;;;;;5035801;28;20211;-84
2022/02/01 05:34:53;;;;;;;18.70;2.90;;;4.00;99.90;;;;;;5039847;28;20200;-82
2022/02/01 05:37:20;;;;;;;11.35;2.83;;;4.10;99.90;;;;;;5037186;28;20204;-84
2022/02/01 05:39:49;;;;;;;6.57;2.63;;;4.00;99.90;;;;;;5047664;28;20232;-84
2022/02/01 05:42:20;;;;;;;10.88;3.35;;;4.00;99.90;;;;;;5039886;28;20502;-81
2022/02/01 05:44:48;;;;;;;14.38;2.22;;;4.10;99.90;;;;;;5035921;28;20247;-82
2022/02/01 05:47:15;;;;;;;11.40;3.83;;;4.10;99.90;;;;;;5030155;28;20220;-83
2022/02/01 05:49:43;;;;;;;19.17;2.92;;;4.10;99.90;;;;;;5035606;28;20208;-84
2022/02/01 05:52:10;;;;;;;9.88;2.20;;;4.20;99.90;;;;;;5030176;28;20211;-82
2022/02/01 05:54:38;;;;;;;12.35;3.42;;;4.20;99.90;;;;;;5020853;28;20254;-82
2022/02/01 05:57:08;;;;;;;11.40;3.83;;;4.20;99.90;;;;;;5026540;28;20192;-81
2022/02/01 05:59:37;;;;;;;11.27;2.63;;;4.20;99.90;;;;;;5045399;28;20665;-80
2022/02/01 06:02:05;;;;;;;10.68;2.20;;;4.30;99.90;;;;;;5038530;28;20217;-81
2022/02/01 06:04:32;;;;;;;16.85;3.90;;;4.30;99.90;;;;;;5027706;28;20228;-82
2022/02/01 06:06:59;;;;;;;11.43;2.35;;;4.30;99.90;;;;;;5028872;28;20223;-80
2022/02/01 06:09:26;;;;;;;12.25;4.47;;;4.30;99.90;;;;;;5029032;28;20212;-83
2022/02/01 06:11:53;;;;;;;9.20;2.85;;;4.40;99.90;;;;;;5030137;28;20256;-82
2022/02/01 06:14:22;;;;;;;9.70;3.03;;;4.40;99.90;;;;;;5029867;28;20213;-83
2022/02/01 06:16:48;;;;;;;14.25;2.40;;;4.40;99.90;;;;;;5030865;28;20204;-81
2022/02/01 06:19:15;;;;;;;9.18;2.42;;;4.50;99.90;;;;;;5019615;28;20236;-83
2022/02/01 06:21:42;;;;;;;6.65;2.20;;;4.60;99.90;;;;;;5036191;28;20216;-82
2022/02/01 06:24:09;;;;;;;14.15;2.83;;;4.50;99.90;;;;;;5038433;28;20228;-81
2022/02/01 06:26:36;;;;;;;6.95;2.10;;;4.60;99.90;;;;;;5032514;28;20217;-83
2022/02/01 06:29:03;;;;;;;16.85;3.58;;;4.60;99.90;;;;;;5033325;28;20628;-81
2022/02/01 06:31:32;;;;;;;14.55;2.80;;;4.60;99.90;;;;;;5029715;28;20272;-83
2022/02/01 06:33:59;;;;;;;10.43;1.80;;;4.70;99.90;;;;;;5029921;28;20236;-82
2022/02/01 06:36:26;;;;;;;7.88;3.33;;;4.70;99.90;;;;;;5030541;28;20615;-85
2022/02/01 06:38:53;;;;;;;7.78;1.95;;;4.60;99.90;;;;;;5035244;28;20231;-83
2022/02/01 06:41:20;;;;;;;9.88;2.28;;;4.60;99.90;;;;;;5034099;28;20197;-83
2022/02/01 06:43:49;;;;;;;11.68;3.72;;;4.60;99.90;;;;;;5026707;28;20220;-81
2022/02/01 06:46:16;;;;;;;11.82;2.63;;;4.60;99.90;;;;;;5023173;28;20213;-81
2022/02/01 06:48:45;;;;;;;7.10;2.42;;;4.60;99.90;;;;;;5021324;28;20236;-82
2022/02/01 06:51:17;;;;;;;6.28;2.47;;;4.60;99.90;;;;;;5023566;28;20261;-81
2022/02/01 06:53:45;;;;;;;13.80;3.10;;;4.60;99.90;;;;;;5025394;28;20284;-83
2022/02/01 06:56:18;;;;;;;7.93;3.15;;;4.70;99.90;;;;;;5025281;28;20235;-84
2022/02/01 06:58:46;;;;;;;16.38;4.47;;;4.60;99.90;;;;;;5024193;28;20304;-81
2022/02/01 07:01:13;;;;;;;31.17;3.72;;;4.60;99.90;;;;;;5029665;28;20200;-85
2022/02/01 07:04:24;;;;;;;12.10;2.63;;;4.60;99.90;;;;;;5026889;28;21026;-83
2022/02/01 07:06:54;;;;;;;5.30;2.38;;;4.70;99.90;;;;;;5011475;28;20284;-80
2022/02/01 07:09:22;;;;;;;6.18;3.95;;;4.60;99.90;;;;;;5021273;28;20200;-80
2022/02/01 07:11:49;;;;;;;5.57;2.75;;;4.60;99.90;;;;;;5028147;28;20208;-80
2022/02/01 07:14:15;;;;;;;9.93;2.38;;;4.60;99.90;;;;;;5025673;28;20217;-81
2022/02/01 07:16:42;;;;;;;10.75;3.00;;;4.60;99.90;;;;;;5024280;28;20197;-80
2022/02/01 07:19:09;;;;;;;15.13;2.63;;;4.50;99.90;;;;;;5026326;28;20288;-77
2022/02/01 07:21:38;;;;;;;8.75;2.17;;;4.50;99.90;;;;;;5025086;28;20243;-79
2022/02/01 07:24:14;;;;;;;10.75;2.70;;;4.50;99.90;;;;;;5022111;28;20680;-81
2022/02/01 07:26:42;;;;;;;9.88;2.25;;;4.50;99.90;;;;;;5020602;28;20208;-83
2022/02/01 07:29:09;;;;;;;7.40;2.70;;;4.60;99.90;;;;;;5028667;28;20197;-82
2022/02/01 07:31:36;;;;;;;9.80;2.78;;;4.60;99.90;;;;;;5036508;28;20247;-82
2022/02/01 07:34:11;;;;;;;8.75;3.17;;;4.60;99.90;;;;;;5033280;28;20256;-83
2022/02/01 07:36:38;;;;;;;10.30;2.92;;;4.60;99.90;;;;;;5021592;28;20204;-81
2022/02/01 07:39:07;;;;;;;7.55;2.28;;;4.60;99.90;;;;;;5021762;28;20671;-81
2022/02/01 07:41:34;;;;;;;7.85;2.47;;;4.70;99.90;;;;;;5019427;28;20216;-80
2022/02/01 07:44:00;;;;;;;6.07;2.80;;;4.60;99.90;;;;;;5030208;28;20248;-80
2022/02/01 07:46:29;;;;;;;8.93;2.85;;;4.70;99.90;;;;;;5033046;28;20208;-81
2022/02/01 07:48:56;;;;;;;7.57;2.35;;;4.70;99.90;;;;;;5039388;28;20193;-83
2022/02/01 07:51:23;;;;;;;14.55;3.20;;;4.70;99.90;;;;;;5033885;28;20260;-79
2022/02/01 07:53:50;;;;;;;19.90;3.55;;;4.70;99.90;;;;;;5031711;28;20221;-81
2022/02/01 07:56:19;;;;;;;8.07;3.22;;;4.80;99.90;;;;;;5023973;28;20207;-79
2022/02/01 07:58:45;;;;;;;11.43;3.13;;;4.90;99.90;;;;;;5025309;28;21358;-81
2022/02/01 08:01:12;;;;;;;10.88;3.40;;;4.80;99.90;;;;;;5038339;28;20209;-82
2022/02/01 08:03:39;;;;;;;10.00;3.10;;;4.80;99.90;;;;;;5051293;28;20219;-82
2022/02/01 08:06:06;;;;;;;5.90;1.60;;;4.80;99.90;;;;;;5032100;28;20228;-80
2022/02/01 08:08:33;;;;;;;7.78;2.50;;;4.90;99.90;;;;;;5021482;28;20266;-79
2022/02/01 08:11:02;;;;;;;10.07;2.42;;;5.00;99.90;;;;;;5021736;28;20224;-82
2022/02/01 08:16:35;;;;;;;9.20;2.53;;;5.10;99.90;;;;;;5017437;28;20205;-80
2022/02/01 08:19:12;;;;;;;4.80;2.08;;;5.10;99.90;;;;;;5027371;28;20216;-80
2022/02/01 08:21:44;;;;;;;7.53;3.05;;;5.10;99.90;;;;;;5024568;28;20204;-80
2022/02/01 08:24:11;;;;;;;10.25;2.25;;;5.20;99.90;;;;;;5022531;28;20228;-81
2022/02/01 08:26:38;;;;;;;14.50;3.67;;;5.30;99.90;;;;;;5021562;28;20207;-80
2022/02/01 08:29:06;;;;;;;11.57;2.70;;;5.30;99.90;;;;;;5012300;28;20209;-80
2022/02/01 08:31:33;;;;;;;12.02;3.47;;;5.40;99.90;;;;;;5024836;28;20208;-80
2022/02/01 08:34:00;;;;;;;21.98;6.13;;;5.30;99.90;;;;;;5032406;28;20249;-81
2022/02/01 08:36:27;;;;;;;6.20;2.35;;;5.40;99.90;;;;;;5021545;28;20198;-80
2022/02/01 08:38:55;;;;;;;5.93;2.53;;;5.60;99.90;;;;;;5026608;28;20225;-79
2022/02/01 08:41:22;;;;;;;6.43;2.22;;;5.30;99.90;;;;;;5022765;28;20204;-80
2022/02/01 08:43:49;;;;;;;14.90;3.42;;;5.30;99.90;;;;;;5023375;28;20703;-79
2022/02/01 08:46:20;;;;;;;9.15;2.30;;;5.40;99.90;;;;;;5020588;28;20343;-80
2022/02/01 08:48:46;;;;;;;10.35;2.50;;;5.60;99.90;;;;;;5022385;28;20212;-79
2022/02/01 08:51:16;;;;;;;11.40;3.30;;;5.40;99.90;;;;;;5021676;28;20674;-79
2022/02/01 08:53:54;;;;;;;13.75;3.20;;;5.50;99.90;;;;;;5023132;28;20734;-80
2022/02/01 08:59:05;;;;;;;7.60;3.20;;;5.50;99.90;;;;;;5029236;28;20236;-80
2022/02/01 09:01:36;;;;;;;14.60;2.63;;;5.60;99.90;;;;;;5038160;28;20185;-80
2022/02/01 09:04:03;;;;;;;8.38;3.25;;;5.60;99.90;;;;;;5038566;28;20240;-80
2022/02/01 09:06:31;;;;;;;6.15;2.88;;;5.60;99.90;;;;;;5041991;28;20197;-80
2022/02/01 09:08:58;;;;;;;16.17;4.05;;;5.60;99.90;;;;;;5040161;28;20203;-80
2022/02/01 09:11:25;;;;;;;19.30;3.58;;;5.60;99.90;;;;;;5042633;28;20253;-81
2022/02/01 09:13:52;;;;;;;7.90;3.20;;;5.70;99.90;;;;;;5038246;28;20228;-81
2022/02/01 09:16:20;;;;;;;13.57;3.65;;;5.60;99.90;;;;;;5039216;28;20219;-80
2022/02/01 09:18:49;;;;;;;17.55;5.25;;;5.60;99.90;;;;;;5031671;28;20197;-81
2022/02/01 09:21:17;;;;;;;18.60;3.78;;;5.60;99.90;;;;;;5034187;28;20240;-80
2022/02/01 09:23:44;;;;;;;7.70;3.83;;;5.50;99.90;;;;;;5030763;28;20312;-81
2022/02/01 09:26:11;;;;;;;9.55;3.40;;;5.50;99.90;;;;;;5028562;28;20273;-79
2022/02/01 09:28:38;;;;;;;7.90;3.58;;;5.50;99.90;;;;;;5024719;28;20700;-79
2022/02/01 09:31:05;;;;;;;12.38;5.93;;;5.50;99.90;;;;;;5027843;28;20268;-80
2022/02/01 09:33:33;;;;;;;15.43;5.43;;;5.50;99.90;;;;;;5023294;28;20247;-79
2022/02/01 09:36:01;;;;;;;13.60;5.47;;;5.60;99.90;;;;;;5022429;28;20207;-79
2022/02/01 09:38:31;;;;;;;8.05;4.95;;;5.50;99.90;;;;;;5024496;28;20233;-79
2022/02/01 09:41:04;;;;;;;13.18;5.18;;;5.50;99.90;;;;;;5013377;28;20239;-80
2022/02/01 09:43:31;;;;;;;10.40;6.07;;;5.50;99.90;;;;;;5029567;28;20224;-80
2022/02/01 09:46:01;;;;;;;10.93;5.13;;;5.50;99.90;;;;;;5025561;28;20204;-80
2022/02/01 09:48:28;;;;;;;12.05;4.75;;;5.40;99.90;;;;;;5025164;28;20283;-80
2022/02/01 09:50:56;;;;;;;16.17;6.88;;;5.40;99.90;;;;;;5026838;28;20279;-81
2022/02/01 09:53:24;;;;;;;17.20;5.95;;;5.40;99.90;;;;;;5024174;28;20283;-79
2022/02/01 09:55:51;;;;;;;7.75;5.70;;;5.40;99.90;;;;;;5026008;28;20566;-78
2022/02/01 09:58:18;;;;;;;12.90;5.93;;;5.40;99.90;;;;;;5028471;28;20288;-80
2022/02/01 10:00:51;;;;;;;9.65;5.03;;;5.40;99.90;;;;;;5039846;28;20276;-78
2022/02/01 10:03:20;;;;;;;13.75;6.80;;;5.40;99.90;;;;;;5026395;28;20232;-80
2022/02/01 10:06:05;;;;;;;16.23;6.82;;;5.40;99.90;;;;;;5029160;28;20273;-80
2022/02/01 10:08:34;;;;;;;11.30;6.30;;;5.40;99.90;;;;;;5023984;28;20240;-79
2022/02/01 10:11:00;;;;;;;25.10;8.60;;;5.40;99.90;;;;;;5028038;28;20211;-79
2022/02/01 10:13:29;;;;;;;14.23;6.72;;;5.40;99.90;;;;;;5026417;28;20221;-79
2022/02/01 10:16:02;;;;;;;11.25;7.20;;;5.40;99.90;;;;;;5030363;28;20706;-81
2022/02/01 10:18:32;;;;;;;11.18;8.50;;;5.30;99.90;;;;;;5029559;28;20224;-80
2022/02/01 10:21:05;;;;;;;17.65;10.23;;;5.30;99.90;;;;;;5028371;28;20308;-80
2022/02/01 10:23:35;;;;;;;10.43;7.82;;;5.30;99.90;;;;;;5029196;28;20232;-79
2022/02/01 10:26:08;;;;;;;17.65;9.15;;;5.30;99.90;;;;;;5042605;28;20188;-80
2022/02/01 10:29:02;;;;;;;13.23;8.98;;;5.40;99.90;;;;;;5033449;28;20239;-80
2022/02/01 10:31:35;;;;;;;20.52;9.93;;;5.40;99.90;;;;;;5029500;28;20193;-79
2022/02/01 10:34:26;;;;;;;11.60;9.10;;;5.40;99.90;;;;;;5035637;28;20227;-79
2022/02/01 10:36:55;;;;;;;15.30;10.88;;;5.30;99.90;;;;;;5036967;28;20209;-79
2022/02/01 10:39:25;;;;;;;14.10;10.45;;;5.40;99.90;;;;;;5032483;28;20224;-80
2022/02/01 10:41:57;;;;;;;15.18;9.40;;;5.40;99.90;;;;;;5036748;28;20247;-80
2022/02/01 10:44:25;;;;;;;11.38;8.55;;;5.50;99.90;;;;;;5027808;28;20288;-78
2022/02/01 10:46:52;;;;;;;15.90;9.55;;;5.50;99.90;;;;;;5030923;28;20225;-80
2022/02/01 10:49:28;;;;;;;12.85;9.23;;;5.50;99.90;;;;;;5037615;28;20215;-81
2022/02/01 10:52:04;;;;;;;11.55;9.50;;;5.50;99.90;;;;;;5029965;28;20204;-80
2022/02/01 10:54:34;;;;;;;13.57;8.57;;;5.50;99.90;;;;;;5030106;28;20303;-80
2022/02/01 10:57:02;;;;;;;9.13;8.05;;;5.50;99.90;;;;;;5032417;28;20224;-81
2022/02/01 10:59:30;;;;;;;14.27;9.98;;;5.60;99.90;;;;;;5026284;28;20285;-80
2022/02/01 11:02:00;;;;;;;10.45;9.35;;;5.60;99.90;;;;;;5015729;28;20299;-79
2022/02/01 11:04:28;;;;;;;11.88;8.00;;;5.60;99.90;;;;;;5021306;28;20530;-79
2022/02/01 11:06:56;;;;;;;12.13;9.00;;;5.60;99.90;;;;;;5021986;28;20230;-79
2022/02/01 11:09:26;;;;;;;10.85;9.30;;;5.70;99.90;;;;;;5013106;28;20253;-79
2022/02/01 11:11:56;;;;;;;12.60;9.18;;;5.70;99.90;;;;;;5024777;28;20202;-79
2022/02/01 11:14:24;;;;;;;11.68;9.52;;;5.70;99.90;;;;;;5017606;28;20221;-81
2022/02/01 11:17:02;;;;;;;15.25;8.80;;;5.80;99.90;;;;;;5029941;28;20211;-80
2022/02/01 11:19:29;;;;;;;19.02;9.40;;;5.80;99.90;;;;;;5027025;28;20223;-79
2022/02/01 11:21:56;;;;;;;12.25;8.77;;;5.80;99.90;;;;;;5029111;28;20231;-80
2022/02/01 11:24:32;;;;;;;11.68;9.50;;;5.90;99.90;;;;;;5025105;28;20254;-80
2022/02/01 11:27:14;;;;;;;12.88;8.23;;;5.90;99.90;;;;;;5021951;28;20220;-80
2022/02/01 11:30:02;;;;;;;13.27;9.27;;;5.90;99.90;;;;;;5026102;28;20211;-79
2022/02/01 11:32:33;;;;;;;15.38;8.65;;;6.00;99.90;;;;;;5026366;28;20198;-79
2022/02/01 11:35:03;;;;;;;9.27;8.32;;;6.00;99.90;;;;;;5027901;28;20206;-82
2022/02/01 11:37:30;;;;;;;10.25;7.90;;;6.10;99.90;;;;;;5030391;28;20210;-81
2022/02/01 11:39:57;;;;;;;11.57;9.93;;;6.00;99.90;;;;;;5037671;28;20741;-81
2022/02/01 11:42:33;;;;;;;15.68;9.32;;;6.10;99.90;;;;;;5027734;28;20198;-81
2022/02/01 11:45:01;;;;;;;12.02;9.10;;;6.10;99.90;;;;;;5022051;28;20216;-82
2022/02/01 11:47:33;;;;;;;19.00;9.98;;;6.20;99.90;;;;;;5036185;28;20203;-81
2022/02/01 11:50:02;;;;;;;11.82;9.45;;;6.20;99.90;;;;;;5035706;28;20230;-81
2022/02/01 11:52:30;;;;;;;12.50;7.93;;;6.30;99.90;;;;;;5027297;28;20226;-79
2022/02/01 11:55:02;;;;;;;10.98;9.30;;;6.30;99.90;;;;;;5043257;28;20240;-81
2022/02/01 11:57:34;;;;;;;10.85;8.70;;;6.40;99.90;;;;;;5033412;28;20214;-81
2022/02/01 12:00:04;;;;;;;10.63;8.20;;;6.40;99.90;;;;;;5022724;28;20686;-81
2022/02/01 12:02:37;;;;;;;11.05;7.95;;;6.40;99.90;;;;;;5032363;28;20203;-80
2022/02/01 12:05:09;;;;;;;8.65;7.30;;;6.50;99.90;;;;;;5033846;28;20294;-81
2022/02/01 12:08:04;;;;;;;11.65;7.97;;;6.60;99.90;;;;;;5028520;28;20206;-80
2022/02/01 12:10:32;;;;;;;9.25;7.45;;;6.70;99.90;;;;;;5030349;28;20578;-80
2022/02/01 12:13:02;;;;;;;9.43;7.75;;;6.70;99.90;;;;;;5037048;28;20228;-82
2022/02/01 12:15:33;;;;;;;8.85;7.38;;;6.80;99.90;;;;;;5040440;28;20203;-80
2022/02/01 12:18:12;;;;;;;9.00;6.38;;;6.80;99.90;;;;;;5038420;28;20233;-82
2022/02/01 12:20:40;;;;;;;8.52;6.85;;;6.80;99.90;;;;;;5048285;28;20238;-79
2022/02/01 12:23:25;;;;;;;7.93;6.30;;;6.90;99.90;;;;;;5035123;28;20259;-80
2022/02/01 12:25:54;;;;;;;8.02;7.30;;;6.90;99.90;;;;;;5027690;28;20206;-79
2022/02/01 12:28:24;;;;;;;8.05;7.20;;;7.00;99.90;;;;;;5033673;28;20204;-80
2022/02/01 12:30:53;;;;;;;6.75;6.07;;;7.00;99.90;;;;;;5034351;28;20565;-81
2022/02/01 12:33:22;;;;;;;8.13;7.10;;;7.00;99.90;;;;;;5034011;28;20232;-81
2022/02/01 12:35:53;;;;;;;5.55;5.05;;;7.10;99.90;;;;;;5035451;28;20204;-81
2022/02/01 12:38:24;;;;;;;5.93;5.20;;;7.10;99.90;;;;;;5035389;28;20212;-82
2022/02/01 12:40:53;;;;;;;7.57;5.15;;;7.20;99.90;;;;;;5023198;28;20369;-80
2022/02/01 12:43:26;;;;;;;7.00;4.03;;;7.00;99.90;;;;;;5035722;28;20232;-83
2022/02/01 12:46:03;;;;;;;5.38;3.67;;;7.20;99.90;;;;;;5018991;28;20262;-82
2022/02/01 12:48:32;;;;;;;5.72;3.97;;;7.20;99.90;;;;;;5041767;28;20647;-82
2022/02/01 12:51:01;;;;;;;31.75;3.92;;;7.30;99.90;;;;;;5033531;28;20200;-80
2022/02/01 12:53:37;;;;;;;5.30;3.05;;;7.30;99.90;;;;;;5033009;28;20227;-81
2022/02/01 12:56:13;;;;;;;3.25;2.42;;;7.30;99.90;;;;;;5041472;28;20214;-82
2022/02/01 12:58:41;;;;;;;3.65;2.92;;;7.40;99.90;;;;;;5042826;28;20222;-80
2022/02/01 13:01:08;;;;;;;7.05;2.85;;;7.50;99.90;;;;;;5031735;28;20220;-83
2022/02/01 13:03:44;;;;;;;4.72;2.70;;;7.60;99.90;;;;;;5040479;28;20215;-82
2022/02/01 13:06:13;;;;;;;3.40;2.45;;;7.70;99.90;;;;;;5037935;28;20219;-83
2022/02/01 13:17:14;;;;;;;5.40;2.88;;;7.80;99.90;;;;;;5025189;28;20260;-82
2022/02/01 13:20:06;;;;;;;6.70;2.25;;;7.90;99.90;;;;;;5051244;28;20218;-82
2022/02/01 13:22:33;;;;;;;2.28;1.75;;;8.00;99.90;;;;;;5038052;28;20206;-81
2022/02/01 13:25:05;;;;;;;4.60;2.97;;;8.00;99.90;;;;;;5044278;28;20184;-82
2022/02/01 13:27:32;;;;;;;4.00;2.85;;;8.10;99.90;;;;;;5040229;28;20197;-83
2022/02/01 13:30:02;;;;;;;3.15;2.47;;;8.10;99.90;;;;;;5037882;28;20264;-83
2022/02/01 13:32:34;;;;;;;3.72;2.78;;;8.20;99.90;;;;;;5040582;28;20201;-83
2022/02/01 13:35:02;;;;;;;3.00;2.28;;;8.30;99.90;;;;;;5029502;28;20383;-82
2022/02/01 13:37:29;;;;;;;3.95;2.85;;;8.30;99.90;;;;;;5045373;28;20204;-80
2022/02/01 13:39:56;;;;;;;4.20;2.50;;;8.30;99.90;;;;;;5030703;28;20239;-80
2022/02/01 13:42:29;;;;;;;4.07;3.05;;;8.30;99.90;;;;;;5050931;28;20291;-80
2022/02/01 13:44:58;;;;;;;4.57;3.20;;;8.30;99.90;;;;;;5021430;28;20236;-79
2022/02/01 13:47:35;;;;;;;6.70;3.70;;;8.30;99.90;;;;;;5029532;28;20223;-79
2022/02/01 13:50:04;;;;;;;7.95;3.65;;;8.30;99.90;;;;;;5021690;28;20299;-82
2022/02/01 13:52:31;;;;;;;6.00;4.10;;;8.30;99.90;;;;;;5026264;28;20204;-80
2022/02/01 13:54:58;;;;;;;8.50;5.03;;;8.30;99.90;;;;;;5034824;28;20210;-80
2022/02/01 13:57:29;;;;;;;9.20;4.10;;;8.40;99.90;;;;;;5036071;28;20204;-82
2022/02/01 14:00:09;;;;;;;6.72;3.58;;;8.40;99.90;;;;;;5029568;28;20197;-83
2022/02/01 14:02:44;;;;;;;8.32;3.40;;;8.40;99.90;;;;;;5038031;28;20216;-84
2022/02/01 14:05:21;;;;;;;17.88;5.13;;;8.40;99.90;;;;;;5049517;28;20195;-82
2022/02/01 14:10:42;;;;;;;7.93;4.38;;;8.60;99.90;;;;;;5037305;28;20205;-82